sensor_id;sensor_type;location;lat;lon;timestamp;P1;durP1;ratioP1;P2;durP2;ratioP2
6497;SDS011;3282;48.358;10.958;2022-10-19T00:01:34;12.95;;;8.48;;
6497;SDS011;3282;48.358;10.958;2022-10-19T00:04:02;11.63;;;8.73;;
6497;SDS011;3282;48.358;10.958;2022-10-19T00:06:34;11.13;;;8.52;;
6497;SDS011;3282;48.358;10.958;2022-10-19T00:09:03;12.27;;;7.05;;
6497;SDS011;3282;48.358;10.958;2022-10-19T00:11:32;10.90;;;6.85;;
6497;SDS011;3282;48.358;10.958;2022-10-19T00:14:01;13.02;;;9.38;;
6497;SDS011;3282;48.358;10.958;2022-10-19T00:16:29;13.85;;;7.25;;
6497;SDS011;3282;48.358;10.958;2022-10-19T00:18:59;11.95;;;7.85;;
6497;SDS011;3282;48.358;10.958;2022-10-19T00:21:27;10.82;;;7.47;;
6497;SDS011;3282;48.358;10.958;2022-10-19T00:23:54;8.13;;;6.10;;
6497;SDS011;3282;48.358;10.958;2022-10-19T00:26:21;11.20;;;6.88;;
6497;SDS011;3282;48.358;10.958;2022-10-19T00:28:48;10.13;;;6.20;;
6497;SDS011;3282;48.358;10.958;2022-10-19T00:31:15;10.13;;;7.75;;
6497;SDS011;3282;48.358;10.958;2022-10-19T00:33:43;10.13;;;7.63;;
6497;SDS011;3282;48.358;10.958;2022-10-19T00:36:23;8.13;;;5.75;;
6497;SDS011;3282;48.358;10.958;2022-10-19T00:38:51;10.55;;;6.55;;
6497;SDS011;3282;48.358;10.958;2022-10-19T00:41:19;8.73;;;6.30;;
6497;SDS011;3282;48.358;10.958;2022-10-19T00:46:22;9.15;;;6.93;;
6497;SDS011;3282;48.358;10.958;2022-10-19T00:48:49;9.77;;;6.75;;
6497;SDS011;3282;48.358;10.958;2022-10-19T00:51:19;11.13;;;6.63;;
6497;SDS011;3282;48.358;10.958;2022-10-19T00:53:47;10.70;;;6.97;;
6497;SDS011;3282;48.358;10.958;2022-10-19T00:56:14;10.50;;;6.93;;
6497;SDS011;3282;48.358;10.958;2022-10-19T00:58:42;14.82;;;8.75;;
6497;SDS011;3282;48.358;10.958;2022-10-19T01:01:10;13.00;;;6.82;;
6497;SDS011;3282;48.358;10.958;2022-10-19T01:03:41;18.27;;;8.48;;
6497;SDS011;3282;48.358;10.958;2022-10-19T01:06:08;11.32;;;7.53;;
6497;SDS011;3282;48.358;10.958;2022-10-19T01:08:35;105.07;;;18.27;;
6497;SDS011;3282;48.358;10.958;2022-10-19T01:13:35;41.38;;;7.32;;
6497;SDS011;3282;48.358;10.958;2022-10-19T01:16:17;21.80;;;6.38;;
6497;SDS011;3282;48.358;10.958;2022-10-19T01:18:56;253.07;;;20.30;;
6497;SDS011;3282;48.358;10.958;2022-10-19T01:21:34;41.45;;;6.93;;
6497;SDS011;3282;48.358;10.958;2022-10-19T01:32:20;20.83;;;7.53;;
6497;SDS011;3282;48.358;10.958;2022-10-19T01:35:07;16.85;;;7.28;;
6497;SDS011;3282;48.358;10.958;2022-10-19T01:40:28;23.25;;;7.75;;
6497;SDS011;3282;48.358;10.958;2022-10-19T01:43:02;18.75;;;7.32;;
6497;SDS011;3282;48.358;10.958;2022-10-19T01:45:57;115.80;;;14.48;;
6497;SDS011;3282;48.358;10.958;2022-10-19T01:48:29;29.23;;;9.70;;
6497;SDS011;3282;48.358;10.958;2022-10-19T01:51:08;66.53;;;9.70;;
6497;SDS011;3282;48.358;10.958;2022-10-19T01:53:41;33.53;;;10.13;;
6497;SDS011;3282;48.358;10.958;2022-10-19T01:56:11;14.85;;;7.70;;
6497;SDS011;3282;48.358;10.958;2022-10-19T01:58:39;77.00;;;10.73;;
6497;SDS011;3282;48.358;10.958;2022-10-19T02:01:09;74.10;;;9.63;;
6497;SDS011;3282;48.358;10.958;2022-10-19T02:03:37;27.77;;;8.05;;
6497;SDS011;3282;48.358;10.958;2022-10-19T02:06:05;23.85;;;8.07;;
6497;SDS011;3282;48.358;10.958;2022-10-19T02:08:39;47.10;;;9.18;;
6497;SDS011;3282;48.358;10.958;2022-10-19T02:11:10;29.73;;;8.15;;
6497;SDS011;3282;48.358;10.958;2022-10-19T02:13:38;76.40;;;9.27;;
6497;SDS011;3282;48.358;10.958;2022-10-19T02:16:06;36.72;;;9.00;;
6497;SDS011;3282;48.358;10.958;2022-10-19T02:18:41;38.72;;;9.60;;
6497;SDS011;3282;48.358;10.958;2022-10-19T02:21:12;17.75;;;8.27;;
6497;SDS011;3282;48.358;10.958;2022-10-19T02:23:39;12.73;;;7.85;;
6497;SDS011;3282;48.358;10.958;2022-10-19T02:26:05;23.55;;;8.50;;
6497;SDS011;3282;48.358;10.958;2022-10-19T02:28:32;16.70;;;8.82;;
6497;SDS011;3282;48.358;10.958;2022-10-19T02:30:59;58.20;;;15.73;;
6497;SDS011;3282;48.358;10.958;2022-10-19T02:33:26;66.30;;;12.07;;
6497;SDS011;3282;48.358;10.958;2022-10-19T02:35:54;20.45;;;8.95;;
6497;SDS011;3282;48.358;10.958;2022-10-19T02:38:22;13.20;;;8.98;;
6497;SDS011;3282;48.358;10.958;2022-10-19T02:40:56;13.43;;;8.60;;
6497;SDS011;3282;48.358;10.958;2022-10-19T02:43:28;13.65;;;9.63;;
6497;SDS011;3282;48.358;10.958;2022-10-19T02:46:04;12.73;;;9.48;;
6497;SDS011;3282;48.358;10.958;2022-10-19T02:48:38;12.93;;;9.80;;
6497;SDS011;3282;48.358;10.958;2022-10-19T02:51:25;11.52;;;9.10;;
6497;SDS011;3282;48.358;10.958;2022-10-19T02:53:53;10.55;;;8.15;;
6497;SDS011;3282;48.358;10.958;2022-10-19T02:56:19;12.52;;;9.43;;
6497;SDS011;3282;48.358;10.958;2022-10-19T02:58:46;13.55;;;9.18;;
6497;SDS011;3282;48.358;10.958;2022-10-19T03:01:12;11.75;;;9.02;;
6497;SDS011;3282;48.358;10.958;2022-10-19T03:03:39;12.75;;;9.50;;
6497;SDS011;3282;48.358;10.958;2022-10-19T03:06:06;11.30;;;7.72;;
6497;SDS011;3282;48.358;10.958;2022-10-19T03:08:33;10.60;;;8.98;;
6497;SDS011;3282;48.358;10.958;2022-10-19T03:10:59;10.38;;;7.80;;
6497;SDS011;3282;48.358;10.958;2022-10-19T03:13:26;8.95;;;7.65;;
6497;SDS011;3282;48.358;10.958;2022-10-19T03:15:53;9.43;;;6.95;;
6497;SDS011;3282;48.358;10.958;2022-10-19T03:18:19;10.35;;;7.47;;
6497;SDS011;3282;48.358;10.958;2022-10-19T03:20:46;9.20;;;7.78;;
6497;SDS011;3282;48.358;10.958;2022-10-19T03:23:12;11.88;;;9.00;;
6497;SDS011;3282;48.358;10.958;2022-10-19T03:25:39;11.90;;;9.00;;
6497;SDS011;3282;48.358;10.958;2022-10-19T03:28:05;13.50;;;9.05;;
6497;SDS011;3282;48.358;10.958;2022-10-19T03:30:32;10.73;;;8.23;;
6497;SDS011;3282;48.358;10.958;2022-10-19T03:32:58;11.20;;;9.05;;
6497;SDS011;3282;48.358;10.958;2022-10-19T03:35:25;10.60;;;8.20;;
6497;SDS011;3282;48.358;10.958;2022-10-19T03:37:51;14.38;;;9.45;;
6497;SDS011;3282;48.358;10.958;2022-10-19T03:40:18;11.45;;;9.10;;
6497;SDS011;3282;48.358;10.958;2022-10-19T03:42:44;10.00;;;7.63;;
6497;SDS011;3282;48.358;10.958;2022-10-19T03:45:11;11.90;;;9.65;;
6497;SDS011;3282;48.358;10.958;2022-10-19T03:47:37;10.00;;;8.15;;
6497;SDS011;3282;48.358;10.958;2022-10-19T03:50:04;13.02;;;8.50;;
6497;SDS011;3282;48.358;10.958;2022-10-19T03:52:31;12.63;;;9.02;;
6497;SDS011;3282;48.358;10.958;2022-10-19T03:54:58;14.70;;;8.98;;
6497;SDS011;3282;48.358;10.958;2022-10-19T03:57:24;11.40;;;9.40;;
6497;SDS011;3282;48.358;10.958;2022-10-19T03:59:51;11.93;;;9.27;;
6497;SDS011;3282;48.358;10.958;2022-10-19T04:02:17;11.93;;;9.90;;
6497;SDS011;3282;48.358;10.958;2022-10-19T04:04:44;11.00;;;9.05;;
6497;SDS011;3282;48.358;10.958;2022-10-19T04:07:10;12.00;;;10.20;;
6497;SDS011;3282;48.358;10.958;2022-10-19T04:09:37;10.75;;;8.93;;
6497;SDS011;3282;48.358;10.958;2022-10-19T04:12:04;12.80;;;9.68;;
6497;SDS011;3282;48.358;10.958;2022-10-19T04:14:31;11.73;;;8.57;;
6497;SDS011;3282;48.358;10.958;2022-10-19T04:17:10;9.73;;;7.78;;
6497;SDS011;3282;48.358;10.958;2022-10-19T04:19:37;9.98;;;7.43;;
6497;SDS011;3282;48.358;10.958;2022-10-19T04:22:03;11.07;;;8.63;;
6497;SDS011;3282;48.358;10.958;2022-10-19T04:24:30;10.80;;;7.78;;
6497;SDS011;3282;48.358;10.958;2022-10-19T04:26:57;11.27;;;8.85;;
6497;SDS011;3282;48.358;10.958;2022-10-19T04:29:24;10.55;;;8.88;;
6497;SDS011;3282;48.358;10.958;2022-10-19T04:31:55;9.60;;;8.10;;
6497;SDS011;3282;48.358;10.958;2022-10-19T04:34:22;10.30;;;8.05;;
6497;SDS011;3282;48.358;10.958;2022-10-19T04:36:49;10.90;;;7.88;;
6497;SDS011;3282;48.358;10.958;2022-10-19T04:39:15;11.82;;;8.55;;
6497;SDS011;3282;48.358;10.958;2022-10-19T04:41:42;13.93;;;10.93;;
6497;SDS011;3282;48.358;10.958;2022-10-19T04:44:09;11.95;;;7.93;;
6497;SDS011;3282;48.358;10.958;2022-10-19T04:46:36;13.68;;;9.88;;
6497;SDS011;3282;48.358;10.958;2022-10-19T04:49:03;15.43;;;9.27;;
6497;SDS011;3282;48.358;10.958;2022-10-19T04:51:32;12.98;;;9.02;;
6497;SDS011;3282;48.358;10.958;2022-10-19T04:53:59;10.55;;;8.93;;
6497;SDS011;3282;48.358;10.958;2022-10-19T04:56:27;12.43;;;8.23;;
6497;SDS011;3282;48.358;10.958;2022-10-19T04:58:54;13.98;;;9.23;;
6497;SDS011;3282;48.358;10.958;2022-10-19T05:01:23;11.52;;;9.52;;
6497;SDS011;3282;48.358;10.958;2022-10-19T05:03:54;12.20;;;10.20;;
6497;SDS011;3282;48.358;10.958;2022-10-19T05:06:27;12.23;;;8.90;;
6497;SDS011;3282;48.358;10.958;2022-10-19T05:08:55;13.90;;;10.65;;
6497;SDS011;3282;48.358;10.958;2022-10-19T05:11:22;13.07;;;9.30;;
6497;SDS011;3282;48.358;10.958;2022-10-19T05:13:49;13.82;;;9.85;;
6497;SDS011;3282;48.358;10.958;2022-10-19T05:16:17;12.93;;;9.70;;
6497;SDS011;3282;48.358;10.958;2022-10-19T05:18:46;16.73;;;9.82;;
6497;SDS011;3282;48.358;10.958;2022-10-19T05:21:17;14.68;;;11.35;;
6497;SDS011;3282;48.358;10.958;2022-10-19T05:23:44;16.00;;;10.75;;
6497;SDS011;3282;48.358;10.958;2022-10-19T05:26:15;15.30;;;9.90;;
6497;SDS011;3282;48.358;10.958;2022-10-19T05:28:46;13.93;;;10.20;;
6497;SDS011;3282;48.358;10.958;2022-10-19T05:31:15;16.63;;;11.43;;
6497;SDS011;3282;48.358;10.958;2022-10-19T05:33:43;16.58;;;11.25;;
6497;SDS011;3282;48.358;10.958;2022-10-19T05:36:11;14.30;;;10.27;;
6497;SDS011;3282;48.358;10.958;2022-10-19T05:38:40;13.32;;;9.77;;
6497;SDS011;3282;48.358;10.958;2022-10-19T05:41:08;14.80;;;11.05;;
6497;SDS011;3282;48.358;10.958;2022-10-19T05:43:35;13.65;;;10.23;;
6497;SDS011;3282;48.358;10.958;2022-10-19T05:46:08;17.17;;;12.60;;
6497;SDS011;3282;48.358;10.958;2022-10-19T05:48:37;12.98;;;9.73;;
6497;SDS011;3282;48.358;10.958;2022-10-19T05:51:05;14.73;;;10.50;;
6497;SDS011;3282;48.358;10.958;2022-10-19T05:53:33;16.00;;;11.02;;
6497;SDS011;3282;48.358;10.958;2022-10-19T05:56:02;14.52;;;11.05;;
6497;SDS011;3282;48.358;10.958;2022-10-19T05:58:30;18.73;;;11.95;;
6497;SDS011;3282;48.358;10.958;2022-10-19T06:00:58;14.13;;;11.27;;
6497;SDS011;3282;48.358;10.958;2022-10-19T06:03:25;13.93;;;10.73;;
6497;SDS011;3282;48.358;10.958;2022-10-19T06:05:52;15.13;;;11.15;;
6497;SDS011;3282;48.358;10.958;2022-10-19T06:08:20;14.82;;;10.82;;
6497;SDS011;3282;48.358;10.958;2022-10-19T06:10:47;16.20;;;11.93;;
6497;SDS011;3282;48.358;10.958;2022-10-19T06:13:15;16.20;;;11.68;;
6497;SDS011;3282;48.358;10.958;2022-10-19T06:15:43;17.98;;;12.45;;
6497;SDS011;3282;48.358;10.958;2022-10-19T06:18:10;18.42;;;11.85;;
6497;SDS011;3282;48.358;10.958;2022-10-19T06:20:39;18.45;;;12.07;;
6497;SDS011;3282;48.358;10.958;2022-10-19T06:23:08;17.02;;;10.98;;
6497;SDS011;3282;48.358;10.958;2022-10-19T06:25:34;14.20;;;10.43;;
6497;SDS011;3282;48.358;10.958;2022-10-19T06:28:02;22.83;;;15.15;;
6497;SDS011;3282;48.358;10.958;2022-10-19T06:30:29;21.77;;;13.55;;
6497;SDS011;3282;48.358;10.958;2022-10-19T06:32:57;17.02;;;12.93;;
6497;SDS011;3282;48.358;10.958;2022-10-19T06:35:24;22.90;;;14.98;;
6497;SDS011;3282;48.358;10.958;2022-10-19T06:37:50;18.73;;;12.20;;
6497;SDS011;3282;48.358;10.958;2022-10-19T06:40:17;23.40;;;14.98;;
6497;SDS011;3282;48.358;10.958;2022-10-19T06:42:43;20.55;;;13.23;;
6497;SDS011;3282;48.358;10.958;2022-10-19T06:45:10;17.58;;;12.75;;
6497;SDS011;3282;48.358;10.958;2022-10-19T06:47:37;17.40;;;12.85;;
6497;SDS011;3282;48.358;10.958;2022-10-19T06:50:04;19.67;;;13.40;;
6497;SDS011;3282;48.358;10.958;2022-10-19T06:52:32;22.83;;;14.88;;
6497;SDS011;3282;48.358;10.958;2022-10-19T06:55:00;21.63;;;14.70;;
6497;SDS011;3282;48.358;10.958;2022-10-19T06:57:27;18.25;;;13.23;;
6497;SDS011;3282;48.358;10.958;2022-10-19T06:59:54;21.98;;;14.90;;
6497;SDS011;3282;48.358;10.958;2022-10-19T07:02:21;20.50;;;14.00;;
6497;SDS011;3282;48.358;10.958;2022-10-19T07:04:47;20.52;;;14.52;;
6497;SDS011;3282;48.358;10.958;2022-10-19T07:07:14;24.85;;;15.82;;
6497;SDS011;3282;48.358;10.958;2022-10-19T07:09:41;23.13;;;15.57;;
6497;SDS011;3282;48.358;10.958;2022-10-19T07:12:07;20.13;;;14.98;;
6497;SDS011;3282;48.358;10.958;2022-10-19T07:14:36;21.80;;;14.65;;
6497;SDS011;3282;48.358;10.958;2022-10-19T07:17:05;18.95;;;13.45;;
6497;SDS011;3282;48.358;10.958;2022-10-19T07:19:32;19.52;;;13.70;;
6497;SDS011;3282;48.358;10.958;2022-10-19T07:22:00;19.42;;;13.82;;
6497;SDS011;3282;48.358;10.958;2022-10-19T07:24:26;19.17;;;13.85;;
6497;SDS011;3282;48.358;10.958;2022-10-19T07:26:53;19.05;;;13.55;;
6497;SDS011;3282;48.358;10.958;2022-10-19T07:29:20;20.17;;;14.30;;
6497;SDS011;3282;48.358;10.958;2022-10-19T07:31:47;19.33;;;14.18;;
6497;SDS011;3282;48.358;10.958;2022-10-19T07:34:13;23.77;;;14.90;;
6497;SDS011;3282;48.358;10.958;2022-10-19T07:36:43;22.08;;;14.43;;
6497;SDS011;3282;48.358;10.958;2022-10-19T07:39:11;21.15;;;14.23;;
6497;SDS011;3282;48.358;10.958;2022-10-19T07:41:38;21.45;;;13.48;;
6497;SDS011;3282;48.358;10.958;2022-10-19T07:44:05;27.75;;;14.82;;
6497;SDS011;3282;48.358;10.958;2022-10-19T07:46:35;22.65;;;14.55;;
6497;SDS011;3282;48.358;10.958;2022-10-19T07:49:05;23.17;;;14.95;;
6497;SDS011;3282;48.358;10.958;2022-10-19T07:51:36;23.77;;;14.85;;
6497;SDS011;3282;48.358;10.958;2022-10-19T07:54:03;20.67;;;14.43;;
6497;SDS011;3282;48.358;10.958;2022-10-19T07:56:30;22.80;;;14.32;;
6497;SDS011;3282;48.358;10.958;2022-10-19T07:58:57;21.23;;;14.00;;
6497;SDS011;3282;48.358;10.958;2022-10-19T08:01:29;21.58;;;13.98;;
6497;SDS011;3282;48.358;10.958;2022-10-19T08:04:00;21.88;;;14.07;;
6497;SDS011;3282;48.358;10.958;2022-10-19T08:06:47;20.73;;;13.95;;
6497;SDS011;3282;48.358;10.958;2022-10-19T08:09:14;20.42;;;14.35;;
6497;SDS011;3282;48.358;10.958;2022-10-19T08:12:00;44.22;;;30.60;;
6497;SDS011;3282;48.358;10.958;2022-10-19T08:14:27;22.20;;;14.52;;
6497;SDS011;3282;48.358;10.958;2022-10-19T08:16:54;20.58;;;14.23;;
6497;SDS011;3282;48.358;10.958;2022-10-19T08:19:21;19.35;;;13.23;;
6497;SDS011;3282;48.358;10.958;2022-10-19T08:21:48;20.85;;;14.38;;
6497;SDS011;3282;48.358;10.958;2022-10-19T08:24:16;21.77;;;13.85;;
6497;SDS011;3282;48.358;10.958;2022-10-19T08:26:44;19.90;;;13.63;;
6497;SDS011;3282;48.358;10.958;2022-10-19T08:29:12;20.67;;;12.80;;
6497;SDS011;3282;48.358;10.958;2022-10-19T08:31:41;18.52;;;13.45;;
6497;SDS011;3282;48.358;10.958;2022-10-19T08:34:09;19.33;;;14.13;;
6497;SDS011;3282;48.358;10.958;2022-10-19T08:36:36;21.20;;;14.07;;
6497;SDS011;3282;48.358;10.958;2022-10-19T08:39:04;19.98;;;13.20;;
6497;SDS011;3282;48.358;10.958;2022-10-19T08:50:30;16.55;;;12.35;;
6497;SDS011;3282;48.358;10.958;2022-10-19T08:53:03;17.45;;;11.98;;
6497;SDS011;3282;48.358;10.958;2022-10-19T09:01:08;15.27;;;11.77;;
6497;SDS011;3282;48.358;10.958;2022-10-19T09:03:46;14.77;;;11.50;;
6497;SDS011;3282;48.358;10.958;2022-10-19T09:09:04;14.53;;;11.10;;
6497;SDS011;3282;48.358;10.958;2022-10-19T09:11:33;14.15;;;11.38;;
6497;SDS011;3282;48.358;10.958;2022-10-19T09:14:05;14.80;;;11.60;;
6497;SDS011;3282;48.358;10.958;2022-10-19T09:16:40;14.90;;;11.35;;
6497;SDS011;3282;48.358;10.958;2022-10-19T09:19:20;14.23;;;11.02;;
6497;SDS011;3282;48.358;10.958;2022-10-19T09:21:55;14.35;;;11.23;;
6497;SDS011;3282;48.358;10.958;2022-10-19T09:24:47;14.82;;;10.45;;
6497;SDS011;3282;48.358;10.958;2022-10-19T09:29:53;13.77;;;10.63;;
6497;SDS011;3282;48.358;10.958;2022-10-19T09:32:21;15.63;;;11.20;;
6497;SDS011;3282;48.358;10.958;2022-10-19T09:34:52;16.92;;;11.77;;
6497;SDS011;3282;48.358;10.958;2022-10-19T09:37:21;15.02;;;11.52;;
6497;SDS011;3282;48.358;10.958;2022-10-19T09:39:52;16.13;;;11.65;;
6497;SDS011;3282;48.358;10.958;2022-10-19T09:42:30;14.00;;;11.50;;
6497;SDS011;3282;48.358;10.958;2022-10-19T09:45:00;14.82;;;11.05;;
6497;SDS011;3282;48.358;10.958;2022-10-19T09:47:38;13.45;;;10.93;;
6497;SDS011;3282;48.358;10.958;2022-10-19T09:50:22;14.70;;;11.15;;
6497;SDS011;3282;48.358;10.958;2022-10-19T09:52:51;13.63;;;10.93;;
6497;SDS011;3282;48.358;10.958;2022-10-19T09:58:00;15.30;;;10.27;;
6497;SDS011;3282;48.358;10.958;2022-10-19T10:00:40;13.25;;;10.00;;
6497;SDS011;3282;48.358;10.958;2022-10-19T10:03:20;15.02;;;10.43;;
6497;SDS011;3282;48.358;10.958;2022-10-19T10:06:02;15.68;;;10.30;;
6497;SDS011;3282;48.358;10.958;2022-10-19T10:08:37;13.88;;;10.45;;
6497;SDS011;3282;48.358;10.958;2022-10-19T10:11:11;14.73;;;10.55;;
6497;SDS011;3282;48.358;10.958;2022-10-19T10:13:41;18.52;;;13.25;;
6497;SDS011;3282;48.358;10.958;2022-10-19T10:16:14;14.57;;;10.83;;
6497;SDS011;3282;48.358;10.958;2022-10-19T10:19:02;14.40;;;10.57;;
6497;SDS011;3282;48.358;10.958;2022-10-19T10:21:32;14.95;;;11.40;;
6497;SDS011;3282;48.358;10.958;2022-10-19T10:24:05;13.25;;;10.80;;
6497;SDS011;3282;48.358;10.958;2022-10-19T10:26:43;18.85;;;13.13;;
6497;SDS011;3282;48.358;10.958;2022-10-19T10:29:18;16.27;;;11.48;;
6497;SDS011;3282;48.358;10.958;2022-10-19T10:32:04;17.30;;;12.63;;
6497;SDS011;3282;48.358;10.958;2022-10-19T10:35:17;14.68;;;10.40;;
6497;SDS011;3282;48.358;10.958;2022-10-19T10:37:28;14.25;;;10.10;;
6497;SDS011;3282;48.358;10.958;2022-10-19T10:40:15;14.27;;;10.45;;
6497;SDS011;3282;48.358;10.958;2022-10-19T10:42:49;13.25;;;10.10;;
6497;SDS011;3282;48.358;10.958;2022-10-19T10:50:49;15.00;;;10.07;;
6497;SDS011;3282;48.358;10.958;2022-10-19T10:56:18;14.10;;;9.68;;
6497;SDS011;3282;48.358;10.958;2022-10-19T11:01:52;11.93;;;9.80;;
6497;SDS011;3282;48.358;10.958;2022-10-19T11:04:50;12.48;;;9.57;;
6497;SDS011;3282;48.358;10.958;2022-10-19T11:09:51;12.68;;;9.88;;
6497;SDS011;3282;48.358;10.958;2022-10-19T11:12:23;14.48;;;10.70;;
6497;SDS011;3282;48.358;10.958;2022-10-19T11:15:19;12.05;;;9.65;;
6497;SDS011;3282;48.358;10.958;2022-10-19T11:17:53;11.10;;;9.05;;
6497;SDS011;3282;48.358;10.958;2022-10-19T11:20:25;12.63;;;9.60;;
6497;SDS011;3282;48.358;10.958;2022-10-19T11:26:17;11.00;;;8.60;;
6497;SDS011;3282;48.358;10.958;2022-10-19T11:36:58;13.20;;;8.90;;
6497;SDS011;3282;48.358;10.958;2022-10-19T11:42:18;13.10;;;8.70;;
6497;SDS011;3282;48.358;10.958;2022-10-19T11:50:22;9.32;;;5.43;;
6497;SDS011;3282;48.358;10.958;2022-10-19T11:53:07;8.38;;;5.68;;
6497;SDS011;3282;48.358;10.958;2022-10-19T11:55:45;7.20;;;5.43;;
6497;SDS011;3282;48.358;10.958;2022-10-19T12:01:17;8.30;;;6.57;;
6497;SDS011;3282;48.358;10.958;2022-10-19T12:06:42;11.32;;;7.68;;
6497;SDS011;3282;48.358;10.958;2022-10-19T12:14:50;7.15;;;5.75;;
6497;SDS011;3282;48.358;10.958;2022-10-19T12:17:22;8.40;;;5.85;;
6497;SDS011;3282;48.358;10.958;2022-10-19T12:20:02;7.07;;;5.07;;
6497;SDS011;3282;48.358;10.958;2022-10-19T12:22:33;9.13;;;5.63;;
6497;SDS011;3282;48.358;10.958;2022-10-19T12:25:02;7.45;;;5.45;;
6497;SDS011;3282;48.358;10.958;2022-10-19T12:27:33;7.10;;;5.03;;
6497;SDS011;3282;48.358;10.958;2022-10-19T12:30:04;6.53;;;5.15;;
6497;SDS011;3282;48.358;10.958;2022-10-19T12:32:38;5.80;;;4.35;;
6497;SDS011;3282;48.358;10.958;2022-10-19T12:43:37;8.55;;;6.60;;
6497;SDS011;3282;48.358;10.958;2022-10-19T12:51:52;9.23;;;7.05;;
6497;SDS011;3282;48.358;10.958;2022-10-19T12:54:21;10.35;;;6.80;;
6497;SDS011;3282;48.358;10.958;2022-10-19T12:56:51;10.18;;;6.90;;
6497;SDS011;3282;48.358;10.958;2022-10-19T12:59:23;7.60;;;5.80;;
6497;SDS011;3282;48.358;10.958;2022-10-19T13:01:52;8.13;;;6.18;;
6497;SDS011;3282;48.358;10.958;2022-10-19T13:04:20;8.27;;;6.20;;
6497;SDS011;3282;48.358;10.958;2022-10-19T13:09:35;8.25;;;5.70;;
6497;SDS011;3282;48.358;10.958;2022-10-19T13:14:59;8.82;;;5.60;;
6497;SDS011;3282;48.358;10.958;2022-10-19T13:22:39;8.32;;;5.32;;
6497;SDS011;3282;48.358;10.958;2022-10-19T13:27:42;6.68;;;5.40;;
6497;SDS011;3282;48.358;10.958;2022-10-19T14:00:56;7.30;;;6.38;;
6497;SDS011;3282;48.358;10.958;2022-10-19T14:03:40;8.57;;;6.28;;
6497;SDS011;3282;48.358;10.958;2022-10-19T14:06:26;8.32;;;6.65;;
6497;SDS011;3282;48.358;10.958;2022-10-19T14:11:47;8.63;;;7.35;;
6497;SDS011;3282;48.358;10.958;2022-10-19T14:14:17;7.60;;;6.35;;
6497;SDS011;3282;48.358;10.958;2022-10-19T14:16:56;12.00;;;7.90;;
6497;SDS011;3282;48.358;10.958;2022-10-19T14:19:31;8.25;;;5.65;;
6497;SDS011;3282;48.358;10.958;2022-10-19T14:25:06;9.20;;;5.75;;
6497;SDS011;3282;48.358;10.958;2022-10-19T14:27:47;9.98;;;5.65;;
6497;SDS011;3282;48.358;10.958;2022-10-19T14:30:20;11.98;;;5.70;;
6497;SDS011;3282;48.358;10.958;2022-10-19T14:32:51;8.13;;;4.80;;
6497;SDS011;3282;48.358;10.958;2022-10-19T14:35:25;4.07;;;3.20;;
6497;SDS011;3282;48.358;10.958;2022-10-19T14:37:54;5.72;;;3.63;;
6497;SDS011;3282;48.358;10.958;2022-10-19T14:42:53;5.72;;;3.60;;
6497;SDS011;3282;48.358;10.958;2022-10-19T14:45:23;5.30;;;3.40;;
6497;SDS011;3282;48.358;10.958;2022-10-19T14:48:05;7.07;;;3.50;;
6497;SDS011;3282;48.358;10.958;2022-10-19T14:50:34;4.70;;;3.10;;
6497;SDS011;3282;48.358;10.958;2022-10-19T14:56:06;4.28;;;3.15;;
6497;SDS011;3282;48.358;10.958;2022-10-19T14:59:25;4.85;;;3.30;;
6497;SDS011;3282;48.358;10.958;2022-10-19T15:01:31;6.78;;;3.55;;
6497;SDS011;3282;48.358;10.958;2022-10-19T15:03:59;5.70;;;3.33;;
6497;SDS011;3282;48.358;10.958;2022-10-19T15:06:26;5.10;;;3.60;;
6497;SDS011;3282;48.358;10.958;2022-10-19T15:09:02;5.65;;;3.35;;
6497;SDS011;3282;48.358;10.958;2022-10-19T15:11:41;5.18;;;3.38;;
6497;SDS011;3282;48.358;10.958;2022-10-19T15:14:13;7.43;;;3.70;;
6497;SDS011;3282;48.358;10.958;2022-10-19T15:16:51;4.40;;;3.42;;
6497;SDS011;3282;48.358;10.958;2022-10-19T15:19:30;5.95;;;3.60;;
6497;SDS011;3282;48.358;10.958;2022-10-19T15:24:56;6.68;;;4.40;;
6497;SDS011;3282;48.358;10.958;2022-10-19T15:32:57;9.52;;;4.90;;
6497;SDS011;3282;48.358;10.958;2022-10-19T15:35:39;7.15;;;4.90;;
6497;SDS011;3282;48.358;10.958;2022-10-19T15:38:22;6.65;;;4.53;;
6497;SDS011;3282;48.358;10.958;2022-10-19T15:40:55;7.97;;;4.50;;
6497;SDS011;3282;48.358;10.958;2022-10-19T15:46:19;7.55;;;4.90;;
6497;SDS011;3282;48.358;10.958;2022-10-19T15:48:56;12.48;;;6.95;;
6497;SDS011;3282;48.358;10.958;2022-10-19T15:56:17;5.97;;;4.55;;
6497;SDS011;3282;48.358;10.958;2022-10-19T15:58:48;7.13;;;4.50;;
6497;SDS011;3282;48.358;10.958;2022-10-19T16:01:17;7.32;;;4.78;;
6497;SDS011;3282;48.358;10.958;2022-10-19T16:03:45;7.22;;;5.00;;
6497;SDS011;3282;48.358;10.958;2022-10-19T16:06:12;7.03;;;5.00;;
6497;SDS011;3282;48.358;10.958;2022-10-19T16:08:38;8.23;;;5.68;;
6497;SDS011;3282;48.358;10.958;2022-10-19T16:11:07;9.02;;;6.05;;
6497;SDS011;3282;48.358;10.958;2022-10-19T16:13:37;7.87;;;5.53;;
6497;SDS011;3282;48.358;10.958;2022-10-19T16:19:10;6.60;;;5.00;;
6497;SDS011;3282;48.358;10.958;2022-10-19T16:21:58;7.65;;;5.90;;
6497;SDS011;3282;48.358;10.958;2022-10-19T16:24:32;7.88;;;5.70;;
6497;SDS011;3282;48.358;10.958;2022-10-19T16:26:59;6.85;;;5.60;;
6497;SDS011;3282;48.358;10.958;2022-10-19T16:29:26;9.32;;;6.30;;
6497;SDS011;3282;48.358;10.958;2022-10-19T16:31:54;8.95;;;5.88;;
6497;SDS011;3282;48.358;10.958;2022-10-19T16:34:21;9.48;;;5.88;;
6497;SDS011;3282;48.358;10.958;2022-10-19T16:36:47;8.60;;;5.38;;
6497;SDS011;3282;48.358;10.958;2022-10-19T16:39:14;10.88;;;6.25;;
6497;SDS011;3282;48.358;10.958;2022-10-19T16:41:47;10.52;;;6.88;;
6497;SDS011;3282;48.358;10.958;2022-10-19T16:44:13;11.75;;;7.60;;
6497;SDS011;3282;48.358;10.958;2022-10-19T16:46:41;25.10;;;16.90;;
6497;SDS011;3282;48.358;10.958;2022-10-19T16:53:16;22.02;;;13.18;;
6497;SDS011;3282;48.358;10.958;2022-10-19T16:55:43;9.57;;;7.13;;
6497;SDS011;3282;48.358;10.958;2022-10-19T16:58:09;10.02;;;7.28;;
6497;SDS011;3282;48.358;10.958;2022-10-19T17:00:36;10.63;;;6.90;;
6497;SDS011;3282;48.358;10.958;2022-10-19T17:03:03;13.35;;;6.10;;
6497;SDS011;3282;48.358;10.958;2022-10-19T17:05:29;8.10;;;5.80;;
6497;SDS011;3282;48.358;10.958;2022-10-19T17:07:56;9.13;;;6.43;;
6497;SDS011;3282;48.358;10.958;2022-10-19T17:10:22;9.18;;;6.30;;
6497;SDS011;3282;48.358;10.958;2022-10-19T17:12:49;8.98;;;5.53;;
6497;SDS011;3282;48.358;10.958;2022-10-19T17:15:21;8.35;;;5.82;;
6497;SDS011;3282;48.358;10.958;2022-10-19T17:18:15;12.15;;;6.05;;
6497;SDS011;3282;48.358;10.958;2022-10-19T17:20:46;8.80;;;5.88;;
6497;SDS011;3282;48.358;10.958;2022-10-19T17:23:13;8.00;;;5.85;;
6497;SDS011;3282;48.358;10.958;2022-10-19T17:25:45;7.78;;;5.72;;
6497;SDS011;3282;48.358;10.958;2022-10-19T17:28:13;7.70;;;5.93;;
6497;SDS011;3282;48.358;10.958;2022-10-19T17:30:40;7.35;;;5.50;;
6497;SDS011;3282;48.358;10.958;2022-10-19T17:33:07;8.98;;;6.15;;
6497;SDS011;3282;48.358;10.958;2022-10-19T17:35:34;10.57;;;7.28;;
6497;SDS011;3282;48.358;10.958;2022-10-19T17:38:00;12.43;;;9.07;;
6497;SDS011;3282;48.358;10.958;2022-10-19T17:40:27;13.32;;;7.85;;
6497;SDS011;3282;48.358;10.958;2022-10-19T17:42:54;10.10;;;6.55;;
6497;SDS011;3282;48.358;10.958;2022-10-19T17:45:20;9.68;;;6.20;;
6497;SDS011;3282;48.358;10.958;2022-10-19T17:47:47;9.85;;;7.25;;
6497;SDS011;3282;48.358;10.958;2022-10-19T17:50:23;8.10;;;6.57;;
6497;SDS011;3282;48.358;10.958;2022-10-19T17:58:13;16.65;;;8.93;;
6497;SDS011;3282;48.358;10.958;2022-10-19T18:01:10;12.43;;;9.18;;
6497;SDS011;3282;48.358;10.958;2022-10-19T18:04:01;9.95;;;7.80;;
6497;SDS011;3282;48.358;10.958;2022-10-19T18:06:42;11.35;;;8.57;;
6497;SDS011;3282;48.358;10.958;2022-10-19T18:09:15;13.13;;;7.90;;